Time;durP1;ratioP1;P1;durP2;ratioP2;P2;SDS_P1;SDS_P2;PMS_P1;PMS_P2;Temp;Humidity;BMP_temperature;BMP_pressure;BME280_temperature;BME280_humidity;BME280_pressure;Samples;Min_cycle;Max_cycle;Signal;HPM_P1;HPM_P2
2021/04/14 00:01:26;;;;;;;6.73;3.73;;;;;;;-1.28;70.12;97339.03;5076031;28;20454;-79
2021/04/14 00:03:52;;;;;;;8.33;3.70;;;;;;;-1.38;70.16;97340.28;5085827;28;20033;-78
2021/04/14 00:06:17;;;;;;;6.73;3.70;;;;;;;-1.49;71.06;97340.69;5069458;28;20087;-77
2021/04/14 00:08:43;;;;;;;7.77;4.20;;;;;;;-1.46;70.15;97334.59;5068099;28;20025;-78
2021/04/14 00:11:16;;;;;;;7.43;4.00;;;;;;;-1.75;72.34;97341.66;5080570;28;20032;-77
2021/04/14 00:13:43;;;;;;;9.30;4.78;;;;;;;-1.75;72.69;97333.91;5073515;28;20095;-76
2021/04/14 00:16:12;;;;;;;9.17;4.03;;;;;;;-1.69;71.45;97333.69;5070754;28;20024;-77
2021/04/14 00:18:39;;;;;;;8.37;4.60;;;;;;;-1.91;72.87;97333.66;5081399;28;20553;-76
2021/04/14 00:21:05;;;;;;;13.37;4.77;;;;;;;-1.92;73.73;97336.28;5069811;28;20452;-78
2021/04/14 00:23:30;;;;;;;10.47;3.90;;;;;;;-2.09;74.04;97333.47;5061099;28;20520;-78
2021/04/14 00:25:56;;;;;;;8.37;4.30;;;;;;;-2.08;73.45;97330.00;5046322;28;20046;-77
2021/04/14 00:28:24;;;;;;;8.43;4.37;;;;;;;-2.15;74.75;97337.97;5080638;28;20047;-79
2021/04/14 00:30:51;;;;;;;9.17;4.07;;;;;;;-2.05;74.13;97329.88;5077100;28;20476;-78
2021/04/14 00:33:17;;;;;;;8.47;3.80;;;;;;;-1.96;73.96;97332.16;5080287;28;20538;-77
2021/04/14 00:35:43;;;;;;;7.13;3.83;;;;;;;-2.06;74.86;97333.38;5072223;28;20455;-77
2021/04/14 00:38:13;;;;;;;8.20;4.10;;;;;;;-2.09;75.14;97329.16;5084272;28;20495;-78
2021/04/14 00:40:43;;;;;;;10.20;4.57;;;;;;;-2.09;75.96;97333.47;5057931;28;20528;-78
2021/04/14 00:43:10;;;;;;;8.50;3.93;;;;;;;-2.05;75.42;97329.88;5054101;28;20488;-78
2021/04/14 00:45:36;;;;;;;8.07;4.10;;;;;;;-1.95;75.42;97329.50;5064477;28;20474;-76
2021/04/14 00:48:02;;;;;;;7.30;3.60;;;;;;;-1.95;74.74;97333.81;5049559;28;20892;-77
2021/04/14 00:50:28;;;;;;;7.60;3.70;;;;;;;-1.98;75.64;97333.91;5067124;28;20054;-78
2021/04/14 00:52:54;;;;;;;7.87;4.30;;;;;;;-1.82;75.23;97337.63;5081523;28;20992;-78
2021/04/14 00:55:23;;;;;;;9.17;4.10;;;;;;;-1.79;75.00;97327.19;5057527;28;20463;-78
2021/04/14 00:57:49;;;;;;;7.97;4.70;;;;;;;-1.72;74.43;97328.66;5085817;28;20036;-77
2021/04/14 01:00:34;;;;;;;7.30;4.03;;;;;;;-1.79;74.99;97327.19;5076628;28;20461;-77
2021/04/14 01:03:01;;;;;;;10.23;5.00;;;;;;;-1.73;75.70;97321.00;5074349;28;20035;-76
2021/04/14 01:05:31;;;;;;;9.30;5.33;;;;;;;-1.61;74.74;97319.66;5085717;28;20485;-76
2021/04/14 01:07:56;;;;;;;9.27;4.90;;;;;;;-1.66;74.52;97319.84;5060965;28;21014;-76
2021/04/14 01:10:25;;;;;;;8.70;4.73;;;;;;;-1.58;74.80;97322.97;5063573;28;20463;-77
2021/04/14 01:12:52;;;;;;;10.87;5.07;;;;;;;-1.59;74.74;97320.47;5061440;28;20096;-76
2021/04/14 01:15:32;;;;;;;9.33;4.40;;;;;;;-1.58;74.90;97320.41;5074471;28;20446;-78
2021/04/14 01:17:58;;;;;;;9.53;4.93;;;;;;;-1.57;74.66;97318.69;5064900;28;20469;-78
2021/04/14 01:20:25;;;;;;;9.00;4.57;;;;;;;-1.52;74.31;97309.84;5065966;28;21005;-77
2021/04/14 01:22:50;;;;;;;10.40;4.93;;;;;;;-1.60;75.08;97311.06;5065056;28;20119;-78
2021/04/14 01:25:22;;;;;;;9.00;4.40;;;;;;;-1.63;75.05;97316.34;5056037;28;20585;-78
2021/04/14 01:27:47;;;;;;;8.63;4.50;;;;;;;-1.58;74.11;97309.25;5075194;28;20067;-79
2021/04/14 01:30:26;;;;;;;9.27;4.77;;;;;;;-1.49;74.19;97308.91;5078912;28;20545;-78
2021/04/14 01:32:52;;;;;;;8.83;5.30;;;;;;;-1.54;73.45;97315.97;5046321;28;20094;-76
2021/04/14 01:35:20;;;;;;;9.97;5.03;;;;;;;-1.49;73.58;97314.88;5053350;28;20474;-78
2021/04/14 01:37:50;;;;;;;12.27;5.83;;;;;;;-1.64;74.63;97315.50;5069826;28;20463;-78
2021/04/14 01:40:17;;;;;;;14.83;7.30;;;;;;;-1.64;75.06;97309.47;5076784;28;21076;-77
2021/04/14 01:42:43;;;;;;;13.07;6.27;;;;;;;-1.72;75.72;97308.03;5056664;28;20454;-77
2021/04/14 01:45:11;;;;;;;13.77;6.97;;;;;;;-1.64;74.65;97309.47;5056551;28;20536;-78
2021/04/14 01:47:38;;;;;;;10.37;5.20;;;;;;;-1.67;74.21;97310.44;5070052;28;20059;-78
2021/04/14 01:50:05;;;;;;;11.57;5.73;;;;;;;-1.73;74.43;97301.19;5071292;28;20477;-78
2021/04/14 01:52:32;;;;;;;10.67;5.47;;;;;;;-1.68;74.59;97304.44;5057332;28;20443;-77
2021/04/14 01:54:58;;;;;;;13.00;6.00;;;;;;;-1.79;74.50;97306.56;5062497;28;20458;-77
2021/04/14 01:57:24;;;;;;;10.60;5.37;;;;;;;-1.73;74.05;97298.63;5063015;28;20490;-78
2021/04/14 01:59:49;;;;;;;11.13;5.07;;;;;;;-1.69;73.59;97307.91;5063272;28;20450;-78
2021/04/14 02:02:15;;;;;;;10.10;5.60;;;;;;;-1.84;74.55;97305.09;5075715;28;20025;-77
2021/04/14 02:04:49;;;;;;;12.17;5.90;;;;;;;-1.84;74.50;97298.19;5072856;28;20457;-78
2021/04/14 02:07:15;;;;;;;10.47;5.33;;;;;;;-1.85;74.98;97300.81;5065152;28;20462;-78
2021/04/14 02:09:41;;;;;;;12.00;5.87;;;;;;;-1.80;74.58;97299.75;5052107;28;20483;-78
2021/04/14 02:12:07;;;;;;;13.60;5.93;;;;;;;-1.92;75.41;97295.88;5056530;28;20144;-78
2021/04/14 02:14:33;;;;;;;11.77;6.13;;;;;;;-2.00;76.13;97292.75;5035224;28;20128;-78
2021/04/14 02:16:59;;;;;;;13.77;7.07;;;;;;;-2.14;76.55;97295.84;5076663;28;21037;-77
2021/04/14 02:19:26;;;;;;;14.67;6.43;;;;;;;-2.14;76.50;97289.84;5056351;28;20104;-77
2021/04/14 02:21:51;;;;;;;12.33;6.07;;;;;;;-2.08;76.09;97296.50;5049586;28;20641;-76
2021/04/14 02:24:17;;;;;;;11.17;6.03;;;;;;;-2.18;76.61;97296.84;5059147;28;20463;-77
2021/04/14 02:26:43;;;;;;;13.40;6.00;;;;;;;-2.15;76.59;97289.00;5064220;28;20029;-77
2021/04/14 02:29:09;;;;;;;13.83;5.90;;;;;;;-2.20;76.71;97293.47;5069604;28;20028;-77
2021/04/14 02:31:35;;;;;;;9.23;4.87;;;;;;;-2.13;76.84;97292.34;5062399;28;20087;-77
2021/04/14 02:34:04;;;;;;;11.03;5.60;;;;;;;-2.31;76.92;97289.59;5068448;28;20076;-78
2021/04/14 02:36:29;;;;;;;9.07;5.13;;;;;;;-2.27;77.14;97291.19;5063548;28;21103;-78
2021/04/14 02:38:55;;;;;;;10.73;5.37;;;;;;;-2.24;76.71;97289.34;5060933;28;20447;-77
2021/04/14 02:41:21;;;;;;;11.83;5.67;;;;;;;-2.19;76.07;97290.00;5078656;28;20050;-77
2021/04/14 02:43:48;;;;;;;10.37;5.00;;;;;;;-2.35;75.71;97282.88;5068441;28;20085;-77
2021/04/14 02:46:14;;;;;;;10.80;5.20;;;;;;;-2.49;77.30;97291.91;5046183;28;20879;-76
2021/04/14 02:48:41;;;;;;;11.37;5.23;;;;;;;-2.42;77.26;97284.81;5064748;28;20448;-77
2021/04/14 02:51:08;;;;;;;9.27;5.83;;;;;;;-2.54;77.49;97287.84;5067753;28;20036;-78
2021/04/14 02:53:35;;;;;;;9.90;5.40;;;;;;;-2.57;77.94;97290.50;5076939;28;20474;-76
2021/04/14 02:56:01;;;;;;;19.90;6.53;;;;;;;-2.51;77.79;97280.00;5074622;28;20587;-77
2021/04/14 02:58:27;;;;;;;20.93;9.57;;;;;;;-2.49;77.85;97275.63;5072333;28;20446;-76
2021/04/14 03:00:53;;;;;;;20.83;8.70;;;;;;;-2.42;77.61;97274.50;5067895;28;20449;-76
2021/04/14 03:03:18;;;;;;;18.97;8.60;;;;;;;-2.40;76.76;97272.72;5069565;28;20040;-77
2021/04/14 03:05:44;;;;;;;19.67;9.70;;;;;;;-2.51;77.05;97270.53;5059967;28;20024;-77
2021/04/14 03:08:10;;;;;;;19.60;9.77;;;;;;;-2.46;77.01;97275.53;5071679;28;20028;-77
2021/04/14 03:10:36;;;;;;;17.23;8.80;;;;;;;-2.48;77.26;97273.00;5051283;28;20037;-75
2021/04/14 03:13:03;;;;;;;18.00;8.17;;;;;;;-2.61;76.88;97279.47;5058619;28;20024;-76
2021/04/14 03:15:32;;;;;;;15.77;8.07;;;;;;;-2.60;77.08;97276.00;5054459;28;20025;-77
2021/04/14 03:17:58;;;;;;;16.27;8.33;;;;;;;-2.57;77.34;97275.06;5065200;28;20495;-76
2021/04/14 03:20:24;;;;;;;18.83;7.40;;;;;;;-2.54;77.46;97273.22;5090555;28;20445;-75
2021/04/14 03:22:53;;;;;;;15.43;7.47;;;;;;;-2.50;77.43;97273.94;5088064;28;20529;-77
2021/04/14 03:25:19;;;;;;;13.87;7.17;;;;;;;-2.55;77.57;97273.25;5059567;28;21108;-76
2021/04/14 03:27:45;;;;;;;14.63;6.87;;;;;;;-2.57;77.19;97273.31;5089457;28;20610;-76
2021/04/14 03:30:11;;;;;;;12.57;6.63;;;;;;;-2.61;77.39;97269.19;5065194;28;20474;-76
2021/04/14 03:32:37;;;;;;;13.27;7.03;;;;;;;-2.65;77.48;97271.03;5065302;28;20098;-76
2021/04/14 03:35:05;;;;;;;14.20;7.17;;;;;;;-2.66;77.37;97273.63;5088266;28;20450;-76
2021/04/14 03:37:30;;;;;;;23.60;13.07;;;;;;;-2.81;77.73;97269.88;5057382;28;20059;-79
2021/04/14 03:39:56;;;;;;;17.50;8.23;;;;;;;-2.71;77.96;97271.22;5081922;28;20915;-77
2021/04/14 03:42:22;;;;;;;14.60;8.30;;;;;;;-2.70;77.01;97264.34;5066170;28;20035;-76
2021/04/14 03:44:52;;;;;;;12.80;7.07;;;;;;;-2.73;77.44;97259.31;5056033;28;20030;-77
2021/04/14 03:47:18;;;;;;;13.47;6.17;;;;;;;-2.89;78.93;97266.69;5074892;28;20755;-76
2021/04/14 03:49:44;;;;;;;12.13;5.37;;;;;;;-2.86;78.80;97262.28;5066708;28;20566;-76
2021/04/14 03:52:10;;;;;;;10.53;5.50;;;;;;;-2.94;78.82;97261.72;5051147;28;21111;-76
2021/04/14 03:54:36;;;;;;;9.87;5.30;;;;;;;-2.96;78.75;97263.47;5068060;28;20036;-77
2021/04/14 03:57:01;;;;;;;10.20;5.93;;;;;;;-3.09;80.09;97263.03;5070374;28;20034;-75
2021/04/14 03:59:27;;;;;;;14.27;6.93;;;;;;;-3.07;79.44;97257.88;5083900;28;20142;-75
2021/04/14 04:01:56;;;;;;;15.57;8.20;;;;;;;-3.02;79.49;97255.97;5061642;28;20020;-77
2021/04/14 04:04:22;;;;;;;13.50;8.17;;;;;;;-3.16;80.20;97266.72;5073870;28;20036;-78
2021/04/14 04:06:48;;;;;;;15.57;8.23;;;;;;;-3.11;80.12;97254.56;5068670;28;20425;-77
2021/04/14 04:09:14;;;;;;;16.00;7.50;;;;;;;-3.06;80.12;97256.13;5051534;28;20025;-76
2021/04/14 04:11:40;;;;;;;13.50;7.30;;;;;;;-3.04;79.99;97254.34;5052606;28;20021;-75
2021/04/14 04:14:11;;;;;;;19.90;11.53;;;;;;;-3.11;79.14;97249.41;5071338;28;20485;-76
2021/04/14 04:16:37;;;;;;;17.93;10.40;;;;;;;-3.18;79.70;97255.66;5081952;28;20075;-76
2021/04/14 04:19:03;;;;;;;12.80;8.53;;;;;;;-3.18;80.28;97253.06;5070448;28;20446;-76
2021/04/14 04:21:28;;;;;;;13.40;8.23;;;;;;;-3.20;80.52;97249.69;5061845;28;20089;-75
2021/04/14 04:23:54;;;;;;;15.87;8.60;;;;;;;-3.15;80.41;97242.69;5059307;28;20071;-76
2021/04/14 04:26:20;;;;;;;13.07;7.50;;;;;;;-3.11;80.37;97256.28;5077104;28;20035;-76
2021/04/14 04:28:46;;;;;;;16.10;10.17;;;;;;;-3.26;80.73;97247.31;5074208;28;20035;-76
2021/04/14 04:31:19;;;;;;;14.23;9.13;;;;;;;-3.16;80.49;97253.00;5075267;28;20123;-76
2021/04/14 04:33:45;;;;;;;14.07;9.45;;;;;;;-3.23;80.51;97254.94;5037989;28;20033;-77
2021/04/14 04:36:17;;;;;;;20.67;16.25;;;;;;;-3.22;80.10;97256.66;5074659;28;20035;-76
2021/04/14 04:38:43;;;;;;;22.33;17.20;;;;;;;-3.29;81.20;97254.31;5055510;28;20474;-75
2021/04/14 04:41:14;;;;;;;17.30;10.67;;;;;;;-3.41;81.69;97255.56;5054817;28;20112;-77
2021/04/14 04:43:42;;;;;;;11.90;7.72;;;;;;;-3.32;82.21;97255.22;5069931;28;20371;-76
2021/04/14 04:46:08;;;;;;;12.23;6.47;;;;;;;-3.27;82.10;97263.66;5058193;28;20040;-77
2021/04/14 04:48:33;;;;;;;12.10;5.47;;;;;;;-3.22;81.63;97261.78;5068941;28;20028;-76
2021/04/14 04:50:59;;;;;;;12.73;6.20;;;;;;;-3.12;81.38;97270.88;5068996;28;20055;-75
2021/04/14 04:53:31;;;;;;;15.80;8.57;;;;;;;-3.17;80.90;97271.91;5075213;28;20128;-76
2021/04/14 04:55:56;;;;;;;19.55;10.90;;;;;;;-3.08;80.86;97272.47;5048760;28;20079;-77
2021/04/14 04:58:28;;;;;;;10.53;6.10;;;;;;;-2.95;80.48;97266.88;5067834;28;20020;-76
2021/04/14 05:00:55;;;;;;;9.50;5.45;;;;;;;-2.92;80.20;97264.22;5047908;28;20165;-76
2021/04/14 05:03:30;;;;;;;10.63;5.47;;;;;;;-2.80;80.19;97271.53;5064472;28;20016;-76
2021/04/14 05:05:57;;;;;;;11.65;6.00;;;;;;;-2.70;79.95;97269.50;5075803;28;20037;-76
2021/04/14 05:08:23;;;;;;;10.43;6.13;;;;;;;-2.50;79.16;97268.81;5076659;28;20035;-76
2021/04/14 05:10:49;;;;;;;11.83;5.43;;;;;;;-2.43;79.11;97267.69;5049252;28;20029;-76
2021/04/14 05:13:16;;;;;;;8.00;4.63;;;;;;;-2.34;78.00;97272.53;5058328;28;20044;-76
2021/04/14 05:15:48;;;;;;;9.27;4.53;;;;;;;-2.17;78.35;97277.91;5059208;28;20204;-76
2021/04/14 05:18:14;;;;;;;9.47;4.90;;;;;;;-1.88;77.20;97270.81;5072011;28;20115;-77
2021/04/14 05:20:46;;;;;;;9.50;5.43;;;;;;;-1.92;76.40;97271.84;5078895;28;20019;-76
2021/04/14 05:23:12;;;;;;;16.63;5.17;;;;;;;-1.76;76.45;97272.94;5089274;28;21397;-77
2021/04/14 05:25:42;;;;;;;10.67;4.87;;;;;;;-1.71;76.62;97273.63;5067757;28;20516;-77
2021/04/14 05:28:11;;;;;;;9.37;4.93;;;;;;;-1.35;74.67;97275.66;5070767;28;20458;-77
2021/04/14 05:30:37;;;;;;;10.77;5.63;;;;;;;-1.02;73.76;97268.28;5053387;28;20455;-78
2021/04/14 05:33:09;;;;;;;24.30;14.27;;;;;;;-0.59;72.00;97265.69;5050699;28;20455;-78
2021/04/14 05:35:37;;;;;;;14.43;8.73;;;;;;;-0.39;71.02;97264.81;5066898;28;20486;-79
2021/04/14 05:38:03;;;;;;;12.60;8.10;;;;;;;-0.14;69.20;97277.50;5051721;28;20557;-77
2021/04/14 05:40:28;;;;;;;11.00;5.27;;;;;;;-0.22;69.87;97277.00;5044807;28;20464;-78
2021/04/14 05:43:09;;;;;;;9.50;5.00;;;;;;;-0.29;70.31;97274.69;5046166;28;20447;-78
2021/04/14 05:45:35;;;;;;;11.63;6.43;;;;;;;0.05;70.11;97277.53;5057024;28;20032;-79
2021/04/14 05:48:01;;;;;;;15.23;6.67;;;;;;;0.09;69.17;97281.66;5077402;28;20461;-79
2021/04/14 05:50:26;;;;;;;12.67;6.83;;;;;;;0.32;68.39;97284.03;5078774;28;20044;-78
2021/04/14 05:52:52;;;;;;;13.93;6.40;;;;;;;0.55;66.84;97271.78;5068715;28;20048;-77
2021/04/14 05:55:25;;;;;;;11.30;6.63;;;;;;;0.67;66.74;97279.81;5077919;28;20028;-78
2021/04/14 05:57:51;;;;;;;14.40;7.53;;;;;;;0.73;66.48;97270.06;5073894;28;20528;-78
2021/04/14 06:00:28;;;;;;;11.57;6.17;;;;;;;0.72;67.07;97271.81;5067008;28;20177;-78
2021/04/14 06:02:54;;;;;;;11.77;5.93;;;;;;;0.83;65.00;97276.47;5070229;28;20502;-78
2021/04/14 06:05:35;;;;;;;12.80;6.03;;;;;;;1.09;66.08;97268.28;5087315;28;20059;-79
2021/04/14 06:08:07;;;;;;;11.23;5.43;;;;;;;1.80;63.62;97268.13;5060958;28;20037;-78
2021/04/14 06:10:32;;;;;;;8.90;4.93;;;;;;;2.22;61.96;97264.19;5056197;28;20465;-78
2021/04/14 06:12:58;;;;;;;9.10;4.60;;;;;;;2.35;62.00;97270.41;5055763;28;20459;-76
2021/04/14 06:15:33;;;;;;;9.57;4.47;;;;;;;2.55;59.78;97271.06;5060181;28;20098;-79
2021/04/14 06:18:00;;;;;;;7.67;3.83;;;;;;;2.52;59.87;97272.06;5071142;28;20459;-78
2021/04/14 06:20:35;;;;;;;9.00;3.80;;;;;;;3.29;58.65;97267.75;5066839;28;20914;-77
2021/04/14 06:23:07;;;;;;;8.37;4.60;;;;;;;3.80;57.13;97265.59;5062425;28;20510;-78
2021/04/14 06:25:41;;;;;;;9.30;4.80;;;;;;;4.01;56.00;97268.66;5072900;28;20469;-78
2021/04/14 06:28:07;;;;;;;10.30;3.83;;;;;;;4.60;54.76;97269.34;5064496;28;21007;-77
2021/04/14 06:30:38;;;;;;;9.93;3.97;;;;;;;4.16;55.31;97266.91;5063834;28;20512;-77
2021/04/14 06:33:10;;;;;;;10.60;4.70;;;;;;;4.08;56.99;97269.97;5062002;28;20793;-78
2021/04/14 06:35:42;;;;;;;17.40;6.77;;;;;;;3.82;56.58;97268.94;5072957;28;20501;-78
2021/04/14 06:38:09;;;;;;;12.27;5.20;;;;;;;4.47;54.72;97264.06;5069809;28;20459;-80
2021/04/14 06:43:33;;;;;;;13.83;5.83;;;;;;;4.73;53.91;97266.81;5068504;28;20510;-78
2021/04/14 06:46:03;;;;;;;10.17;5.80;;;;;;;4.70;54.29;97261.78;5067363;28;20497;-79
2021/04/14 06:49:03;;;;;;;10.50;3.93;;;;;;;4.88;54.16;97265.81;5057624;28;20545;-80
2021/04/14 06:51:44;;;;;;;5.27;2.63;;;;;;;5.70;51.75;97263.91;5072471;28;20521;-78
2021/04/14 06:54:17;;;;;;;8.27;2.93;;;;;;;5.77;51.80;97265.16;5078808;28;20495;-78
2021/04/14 06:56:45;;;;;;;8.60;3.77;;;;;;;5.64;52.14;97264.31;5063854;28;20971;-78
2021/04/14 06:59:25;;;;;;;9.13;4.03;;;;;;;6.51;50.09;97260.91;5067968;28;20527;-79
2021/04/14 07:01:58;;;;;;;7.17;2.83;;;;;;;6.26;50.54;97261.78;5058190;28;20379;-78
2021/04/14 07:04:31;;;;;;;8.25;2.72;;;;;;;6.46;51.70;97262.19;5049435;28;20037;-78
2021/04/14 07:07:01;;;;;;;5.57;2.73;;;;;;;5.71;54.10;97268.19;5085941;28;20020;-78
2021/04/14 07:09:43;;;;;;;8.63;3.33;;;;;;;6.45;52.26;97255.28;5073275;28;20501;-78
2021/04/14 07:12:19;;;;;;;8.97;3.43;;;;;;;6.97;50.79;97259.38;5050908;28;20028;-78
2021/04/14 07:14:49;;;;;;;7.93;3.00;;;;;;;6.51;51.31;97257.47;5061323;28;20036;-78
2021/04/14 07:17:27;;;;;;;13.97;5.30;;;;;;;6.84;49.91;97255.06;5049755;28;20101;-79
2021/04/14 07:20:21;;;;;;;7.50;2.87;;;;;;;6.03;53.01;97259.94;5044555;28;20045;-79
2021/04/14 07:23:01;;;;;;;11.23;4.60;;;;;;;6.23;51.73;97255.94;5036916;28;20134;-78
2021/04/14 07:25:36;;;;;;;12.73;4.60;;;;;;;6.61;50.31;97256.72;5071166;28;20509;-79
2021/04/14 07:28:35;;;;;;;6.47;2.57;;;;;;;6.28;52.34;97246.88;5069615;28;20032;-78
2021/04/14 07:31:19;;;;;;;5.27;2.47;;;;;;;6.17;52.37;97252.00;5064445;28;20035;-79
2021/04/14 07:34:13;;;;;;;8.73;3.37;;;;;;;6.20;52.22;97257.00;5061186;28;20117;-78
2021/04/14 07:36:57;;;;;;;5.40;2.17;;;;;;;6.07;52.84;97248.34;5070182;28;20028;-77
2021/04/14 07:39:42;;;;;;;9.40;3.80;;;;;;;6.63;51.89;97238.28;5064112;28;20064;-75
2021/04/14 07:42:33;;;;;;;6.17;2.53;;;;;;;6.63;52.24;97243.50;5070482;28;20066;-78
2021/04/14 07:44:59;;;;;;;5.60;2.10;;;;;;;7.59;48.89;97246.03;5067887;28;20039;-78
2021/04/14 07:47:26;;;;;;;5.00;1.87;;;;;;;5.93;54.49;97256.28;5084389;28;20020;-77
2021/04/14 07:49:52;;;;;;;5.70;2.33;;;;;;;6.39;52.39;97251.31;5062676;28;20028;-77
2021/04/14 07:52:24;;;;;;;5.87;2.40;;;;;;;6.48;50.87;97253.28;5064724;28;20064;-79
2021/04/14 07:54:52;;;;;;;5.60;1.80;;;;;;;7.26;48.59;97245.00;5067902;28;20039;-79
2021/04/14 07:57:39;;;;;;;7.97;2.20;;;;;;;7.82;47.12;97246.09;5056958;28;20067;-79
2021/04/14 08:00:31;;;;;;;5.03;1.67;;;;;;;7.32;48.76;97247.16;5051640;28;20064;-78
2021/04/14 08:03:12;;;;;;;11.90;5.40;;;;;;;7.23;48.75;97250.44;5049985;28;20036;-78
2021/04/14 08:05:39;;;;;;;9.63;4.17;;;;;;;6.84;50.66;97247.22;5049547;28;20040;-77
2021/04/14 08:08:41;;;;;;;5.17;2.10;;;;;;;7.76;48.44;97245.59;5062506;28;20031;-79
2021/04/14 08:11:31;;;;;;;8.55;2.15;;;;;;;8.00;47.83;97253.34;5040339;28;20052;-77
2021/04/14 08:14:19;;;;;;;4.67;2.03;;;;;;;8.15;47.90;97240.88;5051532;28;20096;-79
2021/04/14 08:20:29;;;;;;;4.57;2.10;;;;;;;9.24;44.01;97232.16;5080577;28;20579;-79
2021/04/14 08:23:24;;;;;;;4.23;1.83;;;;;;;8.60;45.00;97240.84;5073544;28;20032;-79
2021/04/14 08:25:53;;;;;;;9.90;3.33;;;;;;;9.38;44.24;97231.03;5070429;28;20029;-79
2021/04/14 08:28:51;;;;;;;4.40;1.93;;;;;;;9.17;43.83;97231.00;5060350;28;20040;-79
2021/04/14 08:31:46;;;;;;;7.97;1.70;;;;;;;9.96;42.38;97223.53;5063070;28;20067;-79
2021/04/14 08:34:26;;;;;;;5.13;1.73;;;;;;;10.58;40.15;97222.50;5077022;28;20066;-79
2021/04/14 08:36:54;;;;;;;6.07;2.37;;;;;;;9.93;42.03;97225.56;5056191;28;20405;-79
2021/04/14 08:39:47;;;;;;;8.80;2.97;;;;;;;10.10;40.54;97223.16;5075232;28;20033;-79
2021/04/14 08:42:25;;;;;;;5.40;2.40;;;;;;;10.65;40.12;97214.91;5050646;28;20526;-78
2021/04/14 08:45:11;;;;;;;6.47;2.23;;;;;;;11.57;38.13;97214.53;5070169;28;20564;-77
2021/04/14 08:47:45;;;;;;;4.57;2.07;;;;;;;9.46;42.84;97223.38;5051865;28;20033;-79
2021/04/14 08:50:47;;;;;;;5.60;1.97;;;;;;;10.20;40.28;97209.22;5070085;28;20587;-79
2021/04/14 08:53:24;;;;;;;4.17;1.90;;;;;;;9.86;41.20;97214.75;5082448;28;20058;-79
2021/04/14 08:55:50;;;;;;;4.80;2.33;;;;;;;10.22;40.56;97204.66;5063799;28;20088;-78
2021/04/14 08:58:19;;;;;;;5.20;1.87;;;;;;;11.07;37.97;97205.00;5063407;28;20059;-79
2021/04/14 09:00:45;;;;;;;3.90;1.40;;;;;;;10.60;37.99;97204.81;5057413;28;20079;-78
2021/04/14 09:03:15;;;;;;;6.17;1.80;;;;;;;12.09;35.99;97193.03;5060450;28;20032;-76
2021/04/14 09:05:44;;;;;;;5.40;2.03;;;;;;;12.58;34.83;97183.09;5054672;28;20063;-78
2021/04/14 09:08:13;;;;;;;4.60;1.73;;;;;;;12.59;36.39;97185.56;5069136;28;20036;-78
2021/04/14 09:13:48;;;;;;;3.60;1.40;;;;;;;12.22;35.37;97186.44;5073637;28;20043;-79
2021/04/14 09:16:31;;;;;;;4.73;1.90;;;;;;;9.93;37.03;97194.03;5063115;28;20040;-79
2021/04/14 09:19:23;;;;;;;3.13;1.30;;;;;;;9.23;39.15;97191.16;5057203;28;20063;-79
2021/04/14 09:22:17;;;;;;;4.63;1.83;;;;;;;8.10;41.84;97201.09;5072998;28;20058;-78
2021/04/14 09:25:03;;;;;;;6.10;2.05;;;;;;;7.70;43.43;97200.72;5078635;28;20103;-79
2021/04/14 09:27:38;;;;;;;6.03;1.57;;;;;;;7.36;42.16;97199.84;5068132;28;20322;-78
2021/04/14 09:30:16;;;;;;;4.07;1.37;;;;;;;7.39;43.70;97204.84;5067677;28;20398;-79
2021/04/14 09:32:45;;;;;;;3.03;1.33;;;;;;;6.63;45.11;97208.72;5072774;28;20090;-79
2021/04/14 09:35:35;;;;;;;4.20;1.30;;;;;;;6.81;45.59;97202.97;5056641;28;21047;-79
2021/04/14 09:38:20;;;;;;;4.63;1.80;;;;;;;6.93;45.87;97205.63;5055693;28;20035;-79
2021/04/14 09:40:45;;;;;;;5.67;1.87;;;;;;;6.63;46.11;97206.09;5062351;28;20028;-79
2021/04/14 09:43:36;;;;;;;6.37;1.80;;;;;;;6.79;47.78;97197.03;5059756;28;20065;-80
2021/04/14 09:46:07;;;;;;;4.57;1.77;;;;;;;6.63;48.56;97204.31;5056675;28;20070;-79
2021/04/14 09:48:55;;;;;;;4.43;1.90;;;;;;;6.24;48.73;97195.78;5052062;28;20037;-78
2021/04/14 09:51:26;;;;;;;4.40;1.63;;;;;;;6.62;48.49;97194.81;5075251;28;20029;-77
2021/04/14 09:53:58;;;;;;;6.53;2.50;;;;;;;6.46;48.43;97194.25;5055726;28;20036;-77
2021/04/14 09:56:33;;;;;;;9.87;2.40;;;;;;;6.71;48.92;97193.31;5059165;28;20042;-77
2021/04/14 09:59:11;;;;;;;7.33;2.77;;;;;;;6.64;47.22;97192.94;5062196;28;20116;-78
2021/04/14 10:01:40;;;;;;;12.07;4.77;;;;;;;7.17;46.20;97190.72;5074948;28;20036;-77
2021/04/14 10:04:19;;;;;;;8.40;2.60;;;;;;;7.30;46.12;97190.66;5056631;28;20029;-77
2021/04/14 10:07:14;;;;;;;6.67;2.30;;;;;;;6.78;46.97;97190.13;5063324;28;20029;-76
2021/04/14 10:09:40;;;;;;;3.87;1.63;;;;;;;6.46;48.79;97183.78;5069885;28;20040;-77
2021/04/14 10:12:25;;;;;;;7.93;1.83;;;;;;;7.07;45.69;97176.69;5059473;28;20044;-78
2021/04/14 10:14:55;;;;;;;7.37;1.90;;;;;;;7.29;44.73;97173.31;5052218;28;20085;-77
2021/04/14 10:17:24;;;;;;;5.30;1.97;;;;;;;7.08;44.29;97167.91;5066338;28;20016;-77
2021/04/14 10:20:18;;;;;;;5.23;2.10;;;;;;;7.52;42.60;97174.19;5077684;28;20020;-77
2021/04/14 10:22:47;;;;;;;4.00;1.43;;;;;;;6.82;42.34;97160.19;5080896;28;20040;-77
2021/04/14 10:25:25;;;;;;;4.07;1.80;;;;;;;6.80;42.08;97163.88;5059116;28;20538;-78
2021/04/14 10:28:15;;;;;;;6.10;1.83;;;;;;;7.39;42.02;97168.22;5067817;28;20029;-78
2021/04/14 10:30:59;;;;;;;4.07;1.40;;;;;;;7.22;43.79;97159.00;5057066;28;20486;-77
2021/04/14 10:33:25;;;;;;;3.93;1.50;;;;;;;7.19;43.48;97157.47;5065616;28;20028;-79
2021/04/14 10:35:52;;;;;;;4.87;1.43;;;;;;;7.35;41.71;97161.53;5070719;28;20122;-78
2021/04/14 10:38:30;;;;;;;4.13;1.47;;;;;;;7.01;42.44;97154.44;5070054;28;20029;-79
2021/04/14 10:40:56;;;;;;;3.03;1.20;;;;;;;8.26;41.51;97154.38;5066441;28;20031;-78
2021/04/14 10:43:25;;;;;;;2.07;1.03;;;;;;;7.75;40.37;97160.16;5084356;28;20588;-78
2021/04/14 10:46:40;;;;;;;3.47;1.20;;;;;;;7.87;39.35;97155.72;5079219;28;20055;-79
2021/04/14 10:49:11;;;;;;;5.07;1.60;;;;;;;7.40;41.91;97165.47;5075745;28;20066;-78
2021/04/14 10:51:54;;;;;;;4.53;1.90;;;;;;;7.76;41.99;97156.56;5083500;28;20131;-79
2021/04/14 10:54:32;;;;;;;3.13;1.50;;;;;;;7.30;42.22;97154.03;5080491;28;20063;-78
2021/04/14 10:57:19;;;;;;;3.90;1.40;;;;;;;7.32;41.12;97147.72;5052135;28;20091;-78
2021/04/14 10:59:48;;;;;;;2.93;1.30;;;;;;;8.24;40.45;97144.97;5072326;28;20036;-78
2021/04/14 11:02:28;;;;;;;4.07;1.90;;;;;;;8.90;35.91;97142.28;5056635;28;21898;-79
2021/04/14 11:05:11;;;;;;;2.83;1.20;;;;;;;8.66;36.24;97130.22;5074622;28;20052;-78
2021/04/14 11:07:38;;;;;;;3.65;1.45;;;;;;;8.44;39.19;97135.53;5061882;28;20768;-79
2021/04/14 11:10:09;;;;;;;2.37;1.13;;;;;;;8.21;39.11;97140.78;5068410;28;20028;-76
2021/04/14 11:12:35;;;;;;;5.00;1.40;;;;;;;7.39;41.78;97132.41;5054379;28;20055;-76
2021/04/14 11:15:11;;;;;;;4.07;1.40;;;;;;;8.29;40.34;97129.72;5063508;28;20052;-78
2021/04/14 11:17:49;;;;;;;5.07;2.17;;;;;;;7.89;40.10;97129.44;5056643;28;20120;-79
2021/04/14 11:20:16;;;;;;;2.83;1.40;;;;;;;7.71;38.21;97135.16;5089854;28;20413;-80
2021/04/14 11:22:50;;;;;;;3.53;1.57;;;;;;;7.48;40.62;97129.09;5057976;28;20099;-79
2021/04/14 11:25:24;;;;;;;5.37;1.57;;;;;;;7.78;41.26;97119.81;5067046;28;20126;-80
2021/04/14 11:28:05;;;;;;;3.73;1.53;;;;;;;8.39;39.22;97117.56;5079806;28;20060;-81
2021/04/14 11:30:44;;;;;;;3.20;1.50;;;;;;;8.14;41.26;97125.69;5087880;28;20048;-79
2021/04/14 11:33:13;;;;;;;3.03;1.30;;;;;;;8.12;40.65;97127.63;5061924;28;20028;-80
2021/04/14 11:35:54;;;;;;;4.23;1.70;;;;;;;8.03;41.92;97118.69;5064320;28;20036;-79
2021/04/14 11:39:05;;;;;;;6.27;2.90;;;;;;;8.42;43.00;97111.25;5055772;28;20055;-79
2021/04/14 11:41:53;;;;;;;5.57;2.00;;;;;;;8.99;43.54;97115.31;5074395;28;20040;-79
2021/04/14 11:44:25;;;;;;;6.80;3.17;;;;;;;9.98;42.51;97107.75;5064553;28;20472;-79
2021/04/14 11:46:57;;;;;;;3.87;1.83;;;;;;;10.01;41.33;97110.94;5076689;28;20052;-79
2021/04/14 11:49:31;;;;;;;9.43;3.30;;;;;;;9.17;40.96;97120.78;5084954;28;20032;-79
2021/04/14 11:52:01;;;;;;;5.97;2.67;;;;;;;8.18;42.19;97120.09;5065152;28;20032;-78
2021/04/14 11:54:34;;;;;;;4.93;2.17;;;;;;;9.26;40.68;97116.56;5075364;28;20059;-79
2021/04/14 11:57:00;;;;;;;10.07;4.53;;;;;;;8.84;42.39;97124.44;5071639;28;20037;-78
2021/04/14 11:59:32;;;;;;;16.93;10.07;;;;;;;8.03;43.51;97111.66;5077899;28;20027;-79
2021/04/14 12:02:21;;;;;;;10.80;6.03;;;;;;;8.57;42.50;97110.00;5075282;28;20521;-79
2021/04/14 12:04:58;;;;;;;6.97;2.70;;;;;;;7.72;41.59;97118.50;5067815;28;20374;-80
2021/04/14 12:07:24;;;;;;;6.17;2.23;;;;;;;7.44;42.39;97114.53;5057849;28;20102;-80